sensor_id;sensor_type;location;lat;lon;timestamp;P1;P2;P0
64861;PMS5003;62652;42.274;-71.436;2023-09-08T00:00:00;27.30;26.47;17.37
64861;PMS5003;62652;42.274;-71.436;2023-09-08T00:01:00;24.43;23.53;17.73
64861;PMS5003;62652;42.274;-71.436;2023-09-08T00:02:00;25.47;25.47;18.30
64861;PMS5003;62652;42.274;-71.436;2023-09-08T00:03:00;25.83;25.07;17.63
64861;PMS5003;62652;42.274;-71.436;2023-09-08T00:04:00;23.00;22.37;17.57
64861;PMS5003;62652;42.274;-71.436;2023-09-08T00:05:00;22.30;22.10;18.27
64861;PMS5003;62652;42.274;-71.436;2023-09-08T00:06:00;23.63;23.60;18.20
64861;PMS5003;62652;42.274;-71.436;2023-09-08T00:07:00;23.70;23.33;18.10
64861;PMS5003;62652;42.274;-71.436;2023-09-08T00:08:00;24.27;23.50;18.93
64861;PMS5003;62652;42.274;-71.436;2023-09-08T00:09:02;24.80;24.20;17.60
64861;PMS5003;62652;42.274;-71.436;2023-09-08T00:10:00;22.13;21.63;16.77
64861;PMS5003;62652;42.274;-71.436;2023-09-08T00:11:00;23.33;22.63;17.77
64861;PMS5003;62652;42.274;-71.436;2023-09-08T00:12:00;25.53;23.90;18.10
64861;PMS5003;62652;42.274;-71.436;2023-09-08T00:13:00;22.83;22.53;17.03
64861;PMS5003;62652;42.274;-71.436;2023-09-08T00:14:00;24.67;24.03;17.90
64861;PMS5003;62652;42.274;-71.436;2023-09-08T00:15:00;25.67;24.63;18.60
64861;PMS5003;62652;42.274;-71.436;2023-09-08T00:16:00;25.77;25.10;18.27
64861;PMS5003;62652;42.274;-71.436;2023-09-08T00:17:00;24.10;22.83;17.13
64861;PMS5003;62652;42.274;-71.436;2023-09-08T00:18:00;23.23;23.23;18.30
64861;PMS5003;62652;42.274;-71.436;2023-09-08T00:19:00;22.80;22.40;17.63
64861;PMS5003;62652;42.274;-71.436;2023-09-08T00:20:00;24.13;23.87;16.47
64861;PMS5003;62652;42.274;-71.436;2023-09-08T00:21:00;22.60;22.43;17.50
64861;PMS5003;62652;42.274;-71.436;2023-09-08T00:22:00;23.87;23.87;18.47
64861;PMS5003;62652;42.274;-71.436;2023-09-08T00:23:00;21.73;21.53;16.80
64861;PMS5003;62652;42.274;-71.436;2023-09-08T00:24:00;22.07;21.60;16.17
64861;PMS5003;62652;42.274;-71.436;2023-09-08T00:25:00;22.60;22.60;17.47
64861;PMS5003;62652;42.274;-71.436;2023-09-08T00:26:00;24.17;23.47;18.33
64861;PMS5003;62652;42.274;-71.436;2023-09-08T00:27:00;23.97;23.97;17.73
64861;PMS5003;62652;42.274;-71.436;2023-09-08T00:28:00;23.07;22.67;17.57
64861;PMS5003;62652;42.274;-71.436;2023-09-08T00:29:00;24.27;23.87;17.60
64861;PMS5003;62652;42.274;-71.436;2023-09-08T00:30:00;22.33;22.03;16.17
64861;PMS5003;62652;42.274;-71.436;2023-09-08T00:31:00;24.37;24.03;19.57
64861;PMS5003;62652;42.274;-71.436;2023-09-08T00:32:00;21.50;21.40;17.23
64861;PMS5003;62652;42.274;-71.436;2023-09-08T00:33:00;23.13;22.57;18.00
64861;PMS5003;62652;42.274;-71.436;2023-09-08T00:34:00;24.63;23.90;18.27
64861;PMS5003;62652;42.274;-71.436;2023-09-08T00:35:00;27.30;26.20;19.97
64861;PMS5003;62652;42.274;-71.436;2023-09-08T00:36:00;25.87;25.67;18.70
64861;PMS5003;62652;42.274;-71.436;2023-09-08T00:37:00;23.60;23.60;17.90
64861;PMS5003;62652;42.274;-71.436;2023-09-08T00:38:00;23.87;23.40;17.87
64861;PMS5003;62652;42.274;-71.436;2023-09-08T00:39:00;25.50;25.30;19.63
64861;PMS5003;62652;42.274;-71.436;2023-09-08T00:40:00;22.77;22.23;17.43
64861;PMS5003;62652;42.274;-71.436;2023-09-08T00:41:00;23.90;23.50;18.20
64861;PMS5003;62652;42.274;-71.436;2023-09-08T00:42:00;24.83;24.43;18.27
64861;PMS5003;62652;42.274;-71.436;2023-09-08T00:43:00;22.73;22.50;18.27
64861;PMS5003;62652;42.274;-71.436;2023-09-08T00:44:00;24.97;24.77;17.33
64861;PMS5003;62652;42.274;-71.436;2023-09-08T00:45:00;25.17;24.97;17.77
64861;PMS5003;62652;42.274;-71.436;2023-09-08T00:46:00;21.70;21.60;17.67
64861;PMS5003;62652;42.274;-71.436;2023-09-08T00:47:00;25.50;25.50;18.53
64861;PMS5003;62652;42.274;-71.436;2023-09-08T00:48:00;24.50;23.80;19.23
64861;PMS5003;62652;42.274;-71.436;2023-09-08T00:49:00;24.13;23.83;18.40
64861;PMS5003;62652;42.274;-71.436;2023-09-08T00:50:00;25.33;25.13;19.23
64861;PMS5003;62652;42.274;-71.436;2023-09-08T00:51:00;25.03;24.93;18.90
64861;PMS5003;62652;42.274;-71.436;2023-09-08T00:52:00;26.00;24.67;18.43
64861;PMS5003;62652;42.274;-71.436;2023-09-08T00:53:00;26.13;25.83;18.33
64861;PMS5003;62652;42.274;-71.436;2023-09-08T00:54:00;24.53;23.87;17.90
64861;PMS5003;62652;42.274;-71.436;2023-09-08T00:55:00;24.97;24.27;19.07
64861;PMS5003;62652;42.274;-71.436;2023-09-08T00:56:00;25.13;24.50;18.37
64861;PMS5003;62652;42.274;-71.436;2023-09-08T00:57:01;25.10;24.80;17.73
64861;PMS5003;62652;42.274;-71.436;2023-09-08T00:58:00;24.90;24.13;17.87
64861;PMS5003;62652;42.274;-71.436;2023-09-08T00:59:00;23.53;22.80;18.03
64861;PMS5003;62652;42.274;-71.436;2023-09-08T01:00:00;23.93;23.93;17.30
64861;PMS5003;62652;42.274;-71.436;2023-09-08T01:01:00;24.23;23.83;18.17
64861;PMS5003;62652;42.274;-71.436;2023-09-08T01:02:00;24.97;24.30;18.37
64861;PMS5003;62652;42.274;-71.436;2023-09-08T01:03:00;23.77;23.23;18.57
64861;PMS5003;62652;42.274;-71.436;2023-09-08T01:04:00;22.30;22.00;18.43
64861;PMS5003;62652;42.274;-71.436;2023-09-08T01:05:00;30.63;29.67;20.73
64861;PMS5003;62652;42.274;-71.436;2023-09-08T01:06:00;29.73;28.83;21.40
64861;PMS5003;62652;42.274;-71.436;2023-09-08T01:07:00;28.00;28.00;20.97
64861;PMS5003;62652;42.274;-71.436;2023-09-08T01:08:00;30.70;29.00;20.90
64861;PMS5003;62652;42.274;-71.436;2023-09-08T01:09:00;29.63;28.93;20.20
64861;PMS5003;62652;42.274;-71.436;2023-09-08T01:10:00;27.63;27.40;20.23
64861;PMS5003;62652;42.274;-71.436;2023-09-08T01:11:00;25.97;24.67;19.07
64861;PMS5003;62652;42.274;-71.436;2023-09-08T01:12:02;28.13;26.70;19.53
64861;PMS5003;62652;42.274;-71.436;2023-09-08T01:13:00;35.03;32.03;23.27
64861;PMS5003;62652;42.274;-71.436;2023-09-08T01:14:00;33.40;31.70;23.87
64861;PMS5003;62652;42.274;-71.436;2023-09-08T01:15:00;32.17;30.50;20.40
64861;PMS5003;62652;42.274;-71.436;2023-09-08T01:16:00;35.73;32.77;23.90
64861;PMS5003;62652;42.274;-71.436;2023-09-08T01:17:00;34.10;32.30;22.93
64861;PMS5003;62652;42.274;-71.436;2023-09-08T01:18:00;35.33;32.50;23.43
64861;PMS5003;62652;42.274;-71.436;2023-09-08T01:19:00;38.30;33.60;24.07
64861;PMS5003;62652;42.274;-71.436;2023-09-08T01:20:01;30.47;29.87;21.70
64861;PMS5003;62652;42.274;-71.436;2023-09-08T01:21:05;31.17;30.30;22.00
64861;PMS5003;62652;42.274;-71.436;2023-09-08T01:22:07;32.03;29.73;21.40
64861;PMS5003;62652;42.274;-71.436;2023-09-08T01:23:09;28.10;27.80;21.63
64861;PMS5003;62652;42.274;-71.436;2023-09-08T01:24:06;30.47;29.97;21.53
64861;PMS5003;62652;42.274;-71.436;2023-09-08T01:26:01;32.77;30.17;20.97
64861;PMS5003;62652;42.274;-71.436;2023-09-08T01:27:00;28.93;27.97;20.70
64861;PMS5003;62652;42.274;-71.436;2023-09-08T01:28:00;31.07;29.83;20.07
64861;PMS5003;62652;42.274;-71.436;2023-09-08T01:29:00;30.37;29.87;20.97
64861;PMS5003;62652;42.274;-71.436;2023-09-08T01:30:01;31.17;30.03;22.57
64861;PMS5003;62652;42.274;-71.436;2023-09-08T01:31:00;30.87;29.60;21.27
64861;PMS5003;62652;42.274;-71.436;2023-09-08T01:32:00;31.93;30.07;21.63
64861;PMS5003;62652;42.274;-71.436;2023-09-08T01:33:00;29.03;28.03;19.50
64861;PMS5003;62652;42.274;-71.436;2023-09-08T01:34:00;27.07;24.77;18.23
64861;PMS5003;62652;42.274;-71.436;2023-09-08T01:35:00;26.17;25.57;19.50
64861;PMS5003;62652;42.274;-71.436;2023-09-08T01:36:00;26.83;25.87;19.30
64861;PMS5003;62652;42.274;-71.436;2023-09-08T01:37:00;26.20;26.07;19.63
64861;PMS5003;62652;42.274;-71.436;2023-09-08T01:38:00;30.40;29.83;21.13
64861;PMS5003;62652;42.274;-71.436;2023-09-08T01:39:00;29.03;28.63;19.90
64861;PMS5003;62652;42.274;-71.436;2023-09-08T01:40:00;30.63;27.70;20.00
64861;PMS5003;62652;42.274;-71.436;2023-09-08T01:41:00;28.40;27.53;19.47
64861;PMS5003;62652;42.274;-71.436;2023-09-08T01:42:00;28.47;27.77;19.53
64861;PMS5003;62652;42.274;-71.436;2023-09-08T01:43:00;25.53;25.53;18.80
64861;PMS5003;62652;42.274;-71.436;2023-09-08T01:44:00;25.70;24.80;18.20
64861;PMS5003;62652;42.274;-71.436;2023-09-08T01:45:00;27.83;27.37;19.70
64861;PMS5003;62652;42.274;-71.436;2023-09-08T01:46:00;23.07;22.90;18.40
64861;PMS5003;62652;42.274;-71.436;2023-09-08T01:47:00;26.60;24.33;19.33
64861;PMS5003;62652;42.274;-71.436;2023-09-08T01:48:00;25.50;25.07;19.27
64861;PMS5003;62652;42.274;-71.436;2023-09-08T01:49:00;24.10;23.90;18.60
64861;PMS5003;62652;42.274;-71.436;2023-09-08T01:50:00;28.37;27.67;19.83
64861;PMS5003;62652;42.274;-71.436;2023-09-08T01:51:00;26.70;26.23;19.57
64861;PMS5003;62652;42.274;-71.436;2023-09-08T01:52:00;29.57;27.97;19.77
64861;PMS5003;62652;42.274;-71.436;2023-09-08T01:53:00;26.13;25.80;19.67
64861;PMS5003;62652;42.274;-71.436;2023-09-08T01:54:00;26.63;26.63;19.40
64861;PMS5003;62652;42.274;-71.436;2023-09-08T01:55:00;27.40;27.10;20.60
64861;PMS5003;62652;42.274;-71.436;2023-09-08T01:56:00;26.73;26.47;19.87
64861;PMS5003;62652;42.274;-71.436;2023-09-08T01:57:00;29.53;28.97;20.30
64861;PMS5003;62652;42.274;-71.436;2023-09-08T01:58:00;29.27;28.97;20.70
64861;PMS5003;62652;42.274;-71.436;2023-09-08T01:59:00;28.83;28.10;19.70
64861;PMS5003;62652;42.274;-71.436;2023-09-08T02:00:00;28.80;27.40;19.63
64861;PMS5003;62652;42.274;-71.436;2023-09-08T02:01:00;25.43;24.60;19.43
64861;PMS5003;62652;42.274;-71.436;2023-09-08T02:02:00;28.90;28.77;20.47
64861;PMS5003;62652;42.274;-71.436;2023-09-08T02:03:01;32.30;30.37;21.13
64861;PMS5003;62652;42.274;-71.436;2023-09-08T02:04:00;26.80;26.37;19.87
64861;PMS5003;62652;42.274;-71.436;2023-09-08T02:05:00;28.60;28.30;20.53
64861;PMS5003;62652;42.274;-71.436;2023-09-08T02:06:00;28.20;27.97;19.53
64861;PMS5003;62652;42.274;-71.436;2023-09-08T02:07:00;26.80;26.20;19.57
64861;PMS5003;62652;42.274;-71.436;2023-09-08T02:08:00;28.57;27.90;19.63
64861;PMS5003;62652;42.274;-71.436;2023-09-08T02:09:00;30.53;29.07;19.53
64861;PMS5003;62652;42.274;-71.436;2023-09-08T02:10:00;27.53;27.53;19.43
64861;PMS5003;62652;42.274;-71.436;2023-09-08T02:11:00;29.50;28.47;20.50
64861;PMS5003;62652;42.274;-71.436;2023-09-08T02:12:00;27.17;25.60;18.90
64861;PMS5003;62652;42.274;-71.436;2023-09-08T02:13:00;30.43;28.00;19.33
64861;PMS5003;62652;42.274;-71.436;2023-09-08T02:14:00;30.63;29.43;19.87
64861;PMS5003;62652;42.274;-71.436;2023-09-08T02:15:00;30.10;28.30;19.73
64861;PMS5003;62652;42.274;-71.436;2023-09-08T02:16:00;30.47;29.50;21.53
64861;PMS5003;62652;42.274;-71.436;2023-09-08T02:17:00;29.30;28.40;20.97
64861;PMS5003;62652;42.274;-71.436;2023-09-08T02:18:00;28.70;28.23;19.90
64861;PMS5003;62652;42.274;-71.436;2023-09-08T02:19:00;30.60;29.60;20.47
64861;PMS5003;62652;42.274;-71.436;2023-09-08T02:20:00;28.20;27.87;20.50
64861;PMS5003;62652;42.274;-71.436;2023-09-08T02:21:00;30.80;29.47;20.33
64861;PMS5003;62652;42.274;-71.436;2023-09-08T02:22:00;26.93;26.83;19.73
64861;PMS5003;62652;42.274;-71.436;2023-09-08T02:23:03;29.40;28.93;20.63
64861;PMS5003;62652;42.274;-71.436;2023-09-08T02:24:00;28.43;27.10;19.83
64861;PMS5003;62652;42.274;-71.436;2023-09-08T02:25:00;26.63;26.07;19.93
64861;PMS5003;62652;42.274;-71.436;2023-09-08T02:26:00;29.10;28.43;20.57
64861;PMS5003;62652;42.274;-71.436;2023-09-08T02:27:00;26.83;26.30;19.37
64861;PMS5003;62652;42.274;-71.436;2023-09-08T02:28:00;28.93;28.30;20.27
64861;PMS5003;62652;42.274;-71.436;2023-09-08T02:29:00;25.60;24.73;18.90
64861;PMS5003;62652;42.274;-71.436;2023-09-08T02:30:00;28.50;27.17;19.60
64861;PMS5003;62652;42.274;-71.436;2023-09-08T02:31:00;27.27;25.50;19.67
64861;PMS5003;62652;42.274;-71.436;2023-09-08T02:32:00;30.50;29.57;21.30
64861;PMS5003;62652;42.274;-71.436;2023-09-08T02:33:00;30.30;28.97;19.83
64861;PMS5003;62652;42.274;-71.436;2023-09-08T02:34:00;27.77;27.67;20.03
64861;PMS5003;62652;42.274;-71.436;2023-09-08T02:35:00;31.13;29.73;21.00
64861;PMS5003;62652;42.274;-71.436;2023-09-08T02:36:02;33.00;31.37;21.30
64861;PMS5003;62652;42.274;-71.436;2023-09-08T02:37:00;33.67;31.33;21.07
64861;PMS5003;62652;42.274;-71.436;2023-09-08T02:38:00;33.50;31.53;22.00
64861;PMS5003;62652;42.274;-71.436;2023-09-08T02:39:00;32.10;30.73;21.33
64861;PMS5003;62652;42.274;-71.436;2023-09-08T02:40:00;33.57;31.17;20.97
64861;PMS5003;62652;42.274;-71.436;2023-09-08T02:41:00;29.27;28.23;20.70
64861;PMS5003;62652;42.274;-71.436;2023-09-08T02:42:00;31.20;29.40;20.23
64861;PMS5003;62652;42.274;-71.436;2023-09-08T02:43:00;32.03;30.07;21.87
64861;PMS5003;62652;42.274;-71.436;2023-09-08T02:44:00;33.40;31.27;22.10
64861;PMS5003;62652;42.274;-71.436;2023-09-08T02:45:00;33.00;31.67;21.77
64861;PMS5003;62652;42.274;-71.436;2023-09-08T02:46:00;33.13;30.07;20.63
64861;PMS5003;62652;42.274;-71.436;2023-09-08T02:47:00;31.03;28.90;19.67
64861;PMS5003;62652;42.274;-71.436;2023-09-08T02:48:00;30.80;29.60;19.83
64861;PMS5003;62652;42.274;-71.436;2023-09-08T02:49:00;31.77;30.67;20.13
64861;PMS5003;62652;42.274;-71.436;2023-09-08T02:50:00;30.30;28.83;20.53
64861;PMS5003;62652;42.274;-71.436;2023-09-08T02:51:00;29.67;29.43;21.60
64861;PMS5003;62652;42.274;-71.436;2023-09-08T02:52:00;27.73;27.53;20.33
64861;PMS5003;62652;42.274;-71.436;2023-09-08T02:53:00;30.37;29.80;21.30
64861;PMS5003;62652;42.274;-71.436;2023-09-08T02:54:00;28.93;28.90;19.90
64861;PMS5003;62652;42.274;-71.436;2023-09-08T02:55:00;28.30;27.90;19.70
64861;PMS5003;62652;42.274;-71.436;2023-09-08T02:56:00;28.67;28.43;19.90
64861;PMS5003;62652;42.274;-71.436;2023-09-08T02:57:00;28.30;26.80;19.97
64861;PMS5003;62652;42.274;-71.436;2023-09-08T02:58:00;27.43;27.27;19.43
64861;PMS5003;62652;42.274;-71.436;2023-09-08T02:59:00;26.67;26.17;20.00
64861;PMS5003;62652;42.274;-71.436;2023-09-08T03:00:00;27.97;27.37;20.07
64861;PMS5003;62652;42.274;-71.436;2023-09-08T03:01:09;26.97;26.70;19.60
64861;PMS5003;62652;42.274;-71.436;2023-09-08T03:02:00;27.53;27.33;19.63
64861;PMS5003;62652;42.274;-71.436;2023-09-08T03:03:00;26.63;26.47;19.60
64861;PMS5003;62652;42.274;-71.436;2023-09-08T03:04:00;27.90;27.47;20.00
64861;PMS5003;62652;42.274;-71.436;2023-09-08T03:05:00;31.30;29.73;20.50
64861;PMS5003;62652;42.274;-71.436;2023-09-08T03:06:00;25.60;25.17;18.90
64861;PMS5003;62652;42.274;-71.436;2023-09-08T03:07:00;27.83;26.63;19.13
64861;PMS5003;62652;42.274;-71.436;2023-09-08T03:08:00;25.87;25.60;18.93
64861;PMS5003;62652;42.274;-71.436;2023-09-08T03:09:00;26.77;26.37;19.90
64861;PMS5003;62652;42.274;-71.436;2023-09-08T03:10:00;26.80;25.87;19.90
64861;PMS5003;62652;42.274;-71.436;2023-09-08T03:11:00;26.67;25.80;19.23
64861;PMS5003;62652;42.274;-71.436;2023-09-08T03:12:00;26.83;26.10;19.90
64861;PMS5003;62652;42.274;-71.436;2023-09-08T03:13:00;26.10;25.33;19.30
64861;PMS5003;62652;42.274;-71.436;2023-09-08T03:14:00;27.60;27.33;18.97
64861;PMS5003;62652;42.274;-71.436;2023-09-08T03:15:00;25.63;24.07;18.50
64861;PMS5003;62652;42.274;-71.436;2023-09-08T03:16:03;28.63;27.77;19.77
64861;PMS5003;62652;42.274;-71.436;2023-09-08T03:17:00;25.43;25.27;20.00
64861;PMS5003;62652;42.274;-71.436;2023-09-08T03:18:00;30.60;29.73;20.53
64861;PMS5003;62652;42.274;-71.436;2023-09-08T03:19:00;27.90;27.80;19.40
64861;PMS5003;62652;42.274;-71.436;2023-09-08T03:20:00;27.40;26.00;18.80
64861;PMS5003;62652;42.274;-71.436;2023-09-08T03:21:00;26.80;26.77;19.40
64861;PMS5003;62652;42.274;-71.436;2023-09-08T03:22:00;24.27;24.27;18.90
64861;PMS5003;62652;42.274;-71.436;2023-09-08T03:23:00;26.77;26.57;19.13
64861;PMS5003;62652;42.274;-71.436;2023-09-08T03:24:00;25.87;25.63;19.27
64861;PMS5003;62652;42.274;-71.436;2023-09-08T03:25:00;26.50;24.93;18.17
64861;PMS5003;62652;42.274;-71.436;2023-09-08T03:26:00;27.13;27.13;19.00
64861;PMS5003;62652;42.274;-71.436;2023-09-08T03:27:00;28.57;27.87;20.10
64861;PMS5003;62652;42.274;-71.436;2023-09-08T03:28:00;25.00;24.90;19.17
64861;PMS5003;62652;42.274;-71.436;2023-09-08T03:29:00;26.97;26.77;19.83
64861;PMS5003;62652;42.274;-71.436;2023-09-08T03:30:00;29.57;28.60;19.63
64861;PMS5003;62652;42.274;-71.436;2023-09-08T03:31:00;27.83;27.53;19.13
64861;PMS5003;62652;42.274;-71.436;2023-09-08T03:32:00;23.27;23.03;18.83
64861;PMS5003;62652;42.274;-71.436;2023-09-08T03:33:00;27.40;27.30;19.67
64861;PMS5003;62652;42.274;-71.436;2023-09-08T03:34:00;26.57;26.07;19.90
64861;PMS5003;62652;42.274;-71.436;2023-09-08T03:35:00;27.20;27.20;19.83
64861;PMS5003;62652;42.274;-71.436;2023-09-08T03:36:00;25.37;24.70;19.30
64861;PMS5003;62652;42.274;-71.436;2023-09-08T03:37:00;28.60;25.97;18.80
64861;PMS5003;62652;42.274;-71.436;2023-09-08T03:38:00;23.60;23.60;17.00
64861;PMS5003;62652;42.274;-71.436;2023-09-08T03:39:00;26.03;25.57;19.33
64861;PMS5003;62652;42.274;-71.436;2023-09-08T03:40:00;26.63;25.90;18.80
64861;PMS5003;62652;42.274;-71.436;2023-09-08T03:41:00;26.53;25.93;19.87
64861;PMS5003;62652;42.274;-71.436;2023-09-08T03:42:01;26.03;25.93;19.53
64861;PMS5003;62652;42.274;-71.436;2023-09-08T03:43:00;24.23;23.97;17.93
64861;PMS5003;62652;42.274;-71.436;2023-09-08T03:44:00;25.23;25.00;17.77
64861;PMS5003;62652;42.274;-71.436;2023-09-08T03:45:00;26.13;25.83;19.57
64861;PMS5003;62652;42.274;-71.436;2023-09-08T03:46:00;27.50;27.10;19.47
64861;PMS5003;62652;42.274;-71.436;2023-09-08T03:47:00;25.43;24.47;19.13
64861;PMS5003;62652;42.274;-71.436;2023-09-08T03:48:00;26.40;25.83;19.07
64861;PMS5003;62652;42.274;-71.436;2023-09-08T03:49:00;25.70;25.27;19.47
64861;PMS5003;62652;42.274;-71.436;2023-09-08T03:50:00;24.77;24.43;17.83
64861;PMS5003;62652;42.274;-71.436;2023-09-08T03:51:00;26.27;25.47;19.03
64861;PMS5003;62652;42.274;-71.436;2023-09-08T03:52:00;29.33;27.83;20.30
64861;PMS5003;62652;42.274;-71.436;2023-09-08T03:53:00;27.20;26.27;19.37
64861;PMS5003;62652;42.274;-71.436;2023-09-08T03:54:00;25.17;24.40;18.47
64861;PMS5003;62652;42.274;-71.436;2023-09-08T03:55:00;24.83;24.03;17.77
64861;PMS5003;62652;42.274;-71.436;2023-09-08T03:56:00;26.63;26.37;18.40
64861;PMS5003;62652;42.274;-71.436;2023-09-08T03:57:00;25.53;25.10;18.60
64861;PMS5003;62652;42.274;-71.436;2023-09-08T03:58:00;25.43;23.97;18.13
64861;PMS5003;62652;42.274;-71.436;2023-09-08T03:59:00;26.93;26.93;19.47
64861;PMS5003;62652;42.274;-71.436;2023-09-08T04:00:00;25.10;24.13;19.13
64861;PMS5003;62652;42.274;-71.436;2023-09-08T04:01:00;30.13;29.27;19.60
64861;PMS5003;62652;42.274;-71.436;2023-09-08T04:02:00;22.60;22.30;17.67
64861;PMS5003;62652;42.274;-71.436;2023-09-08T04:03:00;26.87;26.17;20.13
64861;PMS5003;62652;42.274;-71.436;2023-09-08T04:04:00;24.43;23.93;18.80
64861;PMS5003;62652;42.274;-71.436;2023-09-08T04:05:00;27.97;27.47;19.77
64861;PMS5003;62652;42.274;-71.436;2023-09-08T04:06:00;24.70;23.93;17.57
64861;PMS5003;62652;42.274;-71.436;2023-09-08T04:07:00;24.73;24.37;18.60
64861;PMS5003;62652;42.274;-71.436;2023-09-08T04:08:00;25.97;25.63;19.13
64861;PMS5003;62652;42.274;-71.436;2023-09-08T04:09:00;25.07;24.73;19.23
64861;PMS5003;62652;42.274;-71.436;2023-09-08T04:10:00;25.43;25.43;19.00
64861;PMS5003;62652;42.274;-71.436;2023-09-08T04:11:00;27.97;27.57;19.63
64861;PMS5003;62652;42.274;-71.436;2023-09-08T04:12:00;26.30;25.30;19.77
64861;PMS5003;62652;42.274;-71.436;2023-09-08T04:13:00;29.07;28.33;20.07
64861;PMS5003;62652;42.274;-71.436;2023-09-08T04:14:00;25.53;25.40;19.30
64861;PMS5003;62652;42.274;-71.436;2023-09-08T04:15:00;29.10;28.63;19.50
64861;PMS5003;62652;42.274;-71.436;2023-09-08T04:16:00;27.90;26.83;18.97
64861;PMS5003;62652;42.274;-71.436;2023-09-08T04:17:00;27.30;27.13;19.90
64861;PMS5003;62652;42.274;-71.436;2023-09-08T04:18:00;28.53;27.97;19.43
64861;PMS5003;62652;42.274;-71.436;2023-09-08T04:19:00;28.10;27.10;19.67
64861;PMS5003;62652;42.274;-71.436;2023-09-08T04:20:00;27.20;26.83;19.50
64861;PMS5003;62652;42.274;-71.436;2023-09-08T04:21:00;24.50;24.50;18.03
64861;PMS5003;62652;42.274;-71.436;2023-09-08T04:22:00;27.37;27.20;19.87
64861;PMS5003;62652;42.274;-71.436;2023-09-08T04:23:00;25.17;24.93;18.93
64861;PMS5003;62652;42.274;-71.436;2023-09-08T04:24:00;25.53;25.33;19.90
64861;PMS5003;62652;42.274;-71.436;2023-09-08T04:25:00;25.23;24.30;18.30
64861;PMS5003;62652;42.274;-71.436;2023-09-08T04:26:00;27.63;27.03;19.53
64861;PMS5003;62652;42.274;-71.436;2023-09-08T04:27:00;23.97;23.87;18.73
64861;PMS5003;62652;42.274;-71.436;2023-09-08T04:28:00;26.80;26.27;19.83
64861;PMS5003;62652;42.274;-71.436;2023-09-08T04:29:00;26.10;25.70;19.03
64861;PMS5003;62652;42.274;-71.436;2023-09-08T04:30:00;26.07;25.37;19.23
64861;PMS5003;62652;42.274;-71.436;2023-09-08T04:31:00;26.23;26.07;19.50
64861;PMS5003;62652;42.274;-71.436;2023-09-08T04:32:00;27.17;26.90;19.83
64861;PMS5003;62652;42.274;-71.436;2023-09-08T04:33:00;27.17;26.77;20.03
64861;PMS5003;62652;42.274;-71.436;2023-09-08T04:34:00;26.87;26.03;18.93
64861;PMS5003;62652;42.274;-71.436;2023-09-08T04:35:00;23.87;23.87;18.40
64861;PMS5003;62652;42.274;-71.436;2023-09-08T04:36:00;28.50;28.00;20.07
64861;PMS5003;62652;42.274;-71.436;2023-09-08T04:37:00;29.80;28.97;19.43
64861;PMS5003;62652;42.274;-71.436;2023-09-08T04:38:00;28.50;28.27;20.20
64861;PMS5003;62652;42.274;-71.436;2023-09-08T04:39:00;25.83;25.03;19.17
64861;PMS5003;62652;42.274;-71.436;2023-09-08T04:40:00;28.07;27.57;19.20
64861;PMS5003;62652;42.274;-71.436;2023-09-08T04:41:00;29.23;27.80;19.93
64861;PMS5003;62652;42.274;-71.436;2023-09-08T04:42:00;25.53;25.03;18.83
64861;PMS5003;62652;42.274;-71.436;2023-09-08T04:43:00;28.00;27.67;19.87
64861;PMS5003;62652;42.274;-71.436;2023-09-08T04:44:00;32.77;31.33;21.63
64861;PMS5003;62652;42.274;-71.436;2023-09-08T04:45:00;30.00;28.97;20.10
64861;PMS5003;62652;42.274;-71.436;2023-09-08T04:46:00;28.37;26.67;19.67
64861;PMS5003;62652;42.274;-71.436;2023-09-08T04:47:00;28.80;28.40;20.77
64861;PMS5003;62652;42.274;-71.436;2023-09-08T04:48:00;27.73;27.37;19.80
64861;PMS5003;62652;42.274;-71.436;2023-09-08T04:49:00;30.10;28.70;20.30
64861;PMS5003;62652;42.274;-71.436;2023-09-08T04:50:00;28.97;28.97;21.03
64861;PMS5003;62652;42.274;-71.436;2023-09-08T04:51:00;32.20;30.43;20.00
64861;PMS5003;62652;42.274;-71.436;2023-09-08T04:52:00;28.63;28.10;20.10
64861;PMS5003;62652;42.274;-71.436;2023-09-08T04:53:00;29.03;28.43;20.47
64861;PMS5003;62652;42.274;-71.436;2023-09-08T04:54:00;29.23;28.30;20.10
64861;PMS5003;62652;42.274;-71.436;2023-09-08T04:55:00;31.33;29.87;20.73
64861;PMS5003;62652;42.274;-71.436;2023-09-08T04:56:00;29.23;28.83;19.90
64861;PMS5003;62652;42.274;-71.436;2023-09-08T04:57:00;29.40;28.57;20.20
64861;PMS5003;62652;42.274;-71.436;2023-09-08T04:58:00;23.93;23.57;18.17
64861;PMS5003;62652;42.274;-71.436;2023-09-08T04:59:00;27.63;27.10;20.00
64861;PMS5003;62652;42.274;-71.436;2023-09-08T05:00:00;26.00;25.90;19.67
64861;PMS5003;62652;42.274;-71.436;2023-09-08T05:01:00;25.20;24.60;18.00
64861;PMS5003;62652;42.274;-71.436;2023-09-08T05:02:00;27.00;26.63;19.47
64861;PMS5003;62652;42.274;-71.436;2023-09-08T05:03:00;30.00;28.93;19.97
64861;PMS5003;62652;42.274;-71.436;2023-09-08T05:04:00;26.00;25.40;19.13
64861;PMS5003;62652;42.274;-71.436;2023-09-08T05:05:00;25.70;25.60;19.60
64861;PMS5003;62652;42.274;-71.436;2023-09-08T05:06:00;28.87;28.50;20.93
64861;PMS5003;62652;42.274;-71.436;2023-09-08T05:07:00;28.17;26.53;19.10
64861;PMS5003;62652;42.274;-71.436;2023-09-08T05:08:00;29.90;28.73;20.53
64861;PMS5003;62652;42.274;-71.436;2023-09-08T05:09:00;28.37;28.33;20.50
64861;PMS5003;62652;42.274;-71.436;2023-09-08T05:10:00;30.67;28.93;20.70
64861;PMS5003;62652;42.274;-71.436;2023-09-08T05:11:00;29.33;28.20;20.07
64861;PMS5003;62652;42.274;-71.436;2023-09-08T05:12:00;30.13;28.70;20.77
64861;PMS5003;62652;42.274;-71.436;2023-09-08T05:13:00;28.93;28.60;20.33
64861;PMS5003;62652;42.274;-71.436;2023-09-08T05:14:00;30.03;28.97;19.67
64861;PMS5003;62652;42.274;-71.436;2023-09-08T05:15:00;28.70;28.23;20.27
64861;PMS5003;62652;42.274;-71.436;2023-09-08T05:16:00;27.00;26.63;19.50
64861;PMS5003;62652;42.274;-71.436;2023-09-08T05:17:00;29.80;29.40;20.87
64861;PMS5003;62652;42.274;-71.436;2023-09-08T05:18:00;31.03;29.27;19.73
64861;PMS5003;62652;42.274;-71.436;2023-09-08T05:19:00;29.63;28.87;20.47
64861;PMS5003;62652;42.274;-71.436;2023-09-08T05:20:00;27.70;26.93;18.83
64861;PMS5003;62652;42.274;-71.436;2023-09-08T05:21:00;26.07;25.00;18.07
64861;PMS5003;62652;42.274;-71.436;2023-09-08T05:22:00;31.23;30.27;21.10
64861;PMS5003;62652;42.274;-71.436;2023-09-08T05:23:00;31.13;29.27;20.57
64861;PMS5003;62652;42.274;-71.436;2023-09-08T05:24:00;29.43;28.50;21.23
64861;PMS5003;62652;42.274;-71.436;2023-09-08T05:25:00;30.43;29.60;21.17
64861;PMS5003;62652;42.274;-71.436;2023-09-08T05:26:00;30.77;29.30;21.17
64861;PMS5003;62652;42.274;-71.436;2023-09-08T05:27:00;31.50;29.60;21.53